Reevesville, Illinois
Current Conditions -  °F | °C
As of 10:15 PM on Saturday 22 Nov 2014 (Local Time) from KM30 Reporting Station
Broken Clouds Broken Clouds  
Wind Chill: 55°   Ceiling: 8000
Heat Index: 55°   Visibility: 10mi
Dew Point: 38°   Wind: 3mph
Humidity: 53%   Direction: 140°SE
Pressure: 29.98"   Gusts: NA
Location:  37.3798°N, 88.7652°W
Report Text: KM30 230415Z AUTO 14003KT 10SM SCT070 BKN080 13/04 A2998 RMK AO2 T01300036
Loading
Personal Weather Stations






























Interactive Weather Map New forecast layout! Learn more

10-Day Weather Forecast

Advertisements
Track Severe Weather on mobile